Time,TemperatureF,DewpointF,PressureIn,WindDirection,WindDirectionDegrees,WindSpeedMPH,WindSpeedGustMPH,Humidity,HourlyPrecipIn,Conditions,Clouds,dailyrainin,SolarRadiationWatts/m^2,SoftwareType,DateUTC
2013-10-23 00:04:00,48.0,46.0,-100.00,ESE,119,2.0,3.0,93,0.00,,,0.01,0.000000,,2013-10-23 04:04:00,
2013-10-23 00:45:00,47.0,46.0,-100.00,SSW,201,1.0,4.0,95,0.00,,,0.01,0.000000,,2013-10-23 04:45:00,
2013-10-23 00:55:00,47.0,46.0,-100.00,SSW,201,1.0,4.0,95,0.00,,,0.01,0.000000,,2013-10-23 04:55:00,
2013-10-23 01:04:00,47.0,46.0,-100.00,SSW,201,1.0,4.0,95,0.00,,,0.01,0.000000,,2013-10-23 05:04:00,
2013-10-23 01:43:00,46.0,45.0,-100.00,SE,125,2.0,5.0,96,0.00,,,0.01,0.000000,,2013-10-23 05:43:00,
2013-10-23 01:53:00,46.0,45.0,-100.00,SE,125,2.0,5.0,96,0.00,,,0.01,0.000000,,2013-10-23 05:53:00,
2013-10-23 02:02:00,46.0,45.0,-100.00,SE,125,2.0,5.0,96,0.00,,,0.01,0.000000,,2013-10-23 06:02:00,
2013-10-23 02:42:00,45.0,44.0,-100.00,East,100,2.0,5.0,97,0.00,,,-99.99,0.000000,,2013-10-23 06:42:00,
2013-10-23 02:52:00,45.0,44.0,-100.00,East,100,2.0,5.0,97,0.00,,,-99.99,0.000000,,2013-10-23 06:52:00,
2013-10-23 03:01:00,45.0,44.0,-100.00,East,100,2.0,5.0,97,0.00,,,-99.99,0.000000,,2013-10-23 07:01:00,
2013-10-23 03:42:00,44.0,43.0,-100.00,SSE,151,2.0,5.0,97,0.00,,,0.01,0.000000,,2013-10-23 07:42:00,
2013-10-23 03:52:00,44.0,43.0,-100.00,SSE,151,2.0,5.0,97,0.00,,,0.01,0.000000,,2013-10-23 07:52:00,
2013-10-23 04:02:00,44.0,43.0,-100.00,SSE,151,2.0,5.0,97,0.00,,,0.01,0.000000,,2013-10-23 08:02:00,
2013-10-23 04:42:00,43.0,42.0,-100.00,South,176,1.0,3.0,97,0.00,,,0.01,0.000000,,2013-10-23 08:42:00,
2013-10-23 04:53:00,43.0,42.0,-100.00,South,176,1.0,3.0,97,0.00,,,0.01,0.000000,,2013-10-23 08:53:00,
2013-10-23 05:02:00,43.0,42.0,-100.00,South,176,1.0,3.0,97,0.00,,,0.01,0.000000,,2013-10-23 09:02:00,
2013-10-23 05:43:00,44.0,43.0,-100.00,SE,146,2.0,4.0,97,0.00,,,0.01,0.000000,,2013-10-23 09:43:00,
2013-10-23 05:53:00,44.0,43.0,-100.00,SE,146,2.0,4.0,97,0.00,,,0.01,0.000000,,2013-10-23 09:53:00,
2013-10-23 06:03:00,44.0,43.0,-100.00,SE,146,2.0,4.0,97,0.00,,,0.01,0.000000,,2013-10-23 10:03:00,
2013-10-23 06:43:00,46.0,45.0,-100.00,West,268,2.0,7.0,97,0.00,,,0.01,0.000000,,2013-10-23 10:43:00,
2013-10-23 06:53:00,46.0,45.0,-100.00,West,268,2.0,7.0,97,0.00,,,0.01,0.000000,,2013-10-23 10:53:00,
2013-10-23 07:02:00,46.0,45.0,-100.00,West,268,2.0,7.0,97,0.00,,,0.01,0.000000,,2013-10-23 11:02:00,
2013-10-23 07:42:00,49.0,42.0,-100.00,NW,313,5.0,14.0,77,0.00,,,0.01,0.000000,,2013-10-23 11:42:00,
2013-10-23 07:52:00,49.0,42.0,-100.00,NW,313,5.0,14.0,77,0.00,,,0.01,0.000000,,2013-10-23 11:52:00,
2013-10-23 08:01:00,49.0,42.0,-100.00,NW,313,5.0,14.0,77,0.00,,,0.01,0.000000,,2013-10-23 12:01:00,
2013-10-23 08:42:00,48.0,37.0,-100.00,NW,307,5.0,14.0,66,0.00,,,0.01,2.000000,,2013-10-23 12:42:00,
2013-10-23 08:52:00,48.0,37.0,-100.00,NW,307,5.0,14.0,66,0.00,,,0.01,2.000000,,2013-10-23 12:52:00,
2013-10-23 09:01:00,48.0,37.0,-100.00,NW,307,5.0,14.0,66,0.00,,,0.01,2.000000,,2013-10-23 13:01:00,
2013-10-23 09:43:00,49.0,37.0,-100.00,NNW,341,6.0,15.0,63,0.00,,,0.00,55.000000,,2013-10-23 13:43:00,
2013-10-23 09:52:00,49.0,37.0,-100.00,NNW,341,6.0,15.0,63,0.00,,,0.00,55.000000,,2013-10-23 13:52:00,
2013-10-23 10:02:00,49.0,37.0,-100.00,NNW,341,6.0,15.0,63,0.00,,,0.00,55.000000,,2013-10-23 14:02:00,
2013-10-23 10:42:00,49.0,37.0,-100.00,North,4,7.0,16.0,63,0.00,,,0.00,173.000000,,2013-10-23 14:42:00,
2013-10-23 10:52:00,49.0,37.0,-100.00,North,4,7.0,16.0,63,0.00,,,0.00,173.000000,,2013-10-23 14:52:00,
2013-10-23 11:02:00,49.0,37.0,-100.00,North,4,7.0,16.0,63,0.00,,,0.00,173.000000,,2013-10-23 15:02:00,
2013-10-23 11:43:00,50.0,37.0,-100.00,North,7,7.0,15.0,61,0.00,,,0.00,410.000000,,2013-10-23 15:43:00,
2013-10-23 11:53:00,50.0,37.0,-100.00,North,7,7.0,15.0,61,0.00,,,0.00,410.000000,,2013-10-23 15:53:00,
2013-10-23 12:03:00,50.0,37.0,-100.00,North,7,7.0,15.0,61,0.00,,,0.00,410.000000,,2013-10-23 16:03:00,
2013-10-23 12:43:00,49.0,36.0,-100.00,North,356,5.0,24.0,61,0.00,,,0.00,441.000000,,2013-10-23 16:43:00,
2013-10-23 12:53:00,49.0,36.0,-100.00,North,356,5.0,24.0,61,0.00,,,0.00,441.000000,,2013-10-23 16:53:00,
2013-10-23 13:03:00,49.0,36.0,-100.00,North,356,5.0,24.0,61,0.00,,,0.00,441.000000,,2013-10-23 17:03:00,
2013-10-23 13:44:00,51.0,36.0,-100.00,NNW,333,6.0,16.0,57,0.00,,,0.00,534.000000,,2013-10-23 17:44:00,
2013-10-23 13:52:00,51.0,36.0,-100.00,NNW,333,6.0,16.0,57,0.00,,,0.00,534.000000,,2013-10-23 17:52:00,
2013-10-23 14:02:00,51.0,36.0,-100.00,NNW,333,6.0,16.0,57,0.00,,,0.00,534.000000,,2013-10-23 18:02:00,
2013-10-23 15:42:00,47.0,32.0,-100.00,NNW,344,6.0,16.0,55,-99.99,,,0.00,473.000000,,2013-10-23 19:42:00,
2013-10-23 15:53:00,47.0,32.0,-100.00,NNW,344,6.0,16.0,55,-99.99,,,0.00,473.000000,,2013-10-23 19:53:00,
2013-10-23 16:03:00,47.0,32.0,-100.00,NNW,344,6.0,16.0,55,-99.99,,,0.00,473.000000,,2013-10-23 20:03:00,
2013-10-23 16:42:00,48.0,34.0,-100.00,NE,42,5.0,15.0,57,0.00,,,0.00,495.000000,,2013-10-23 20:42:00,
2013-10-23 16:52:00,48.0,34.0,-100.00,NE,42,5.0,15.0,57,0.00,,,0.00,495.000000,,2013-10-23 20:52:00,
2013-10-23 17:02:00,48.0,34.0,-100.00,NE,42,5.0,15.0,57,0.00,,,0.00,495.000000,,2013-10-23 21:02:00,
2013-10-23 17:43:00,46.0,31.0,-100.00,North,10,8.0,22.0,55,0.00,,,0.00,483.000000,,2013-10-23 21:43:00,
2013-10-23 17:54:00,46.0,31.0,-100.00,North,10,8.0,22.0,55,0.00,,,0.00,483.000000,,2013-10-23 21:54:00,
2013-10-23 18:04:00,46.0,31.0,-100.00,North,10,8.0,22.0,55,0.00,,,0.00,483.000000,,2013-10-23 22:04:00,
2013-10-23 18:43:00,43.0,30.0,-100.00,NNE,16,5.0,15.0,61,0.00,,,0.00,191.000000,,2013-10-23 22:43:00,
2013-10-23 18:54:00,43.0,30.0,-100.00,NNE,16,5.0,15.0,61,0.00,,,0.00,191.000000,,2013-10-23 22:54:00,
2013-10-23 19:03:00,43.0,30.0,-100.00,NNE,16,5.0,15.0,61,0.00,,,0.00,191.000000,,2013-10-23 23:03:00,
2013-10-23 19:43:00,42.0,31.0,-100.00,North,5,5.0,14.0,64,0.00,,,0.00,24.000000,,2013-10-23 23:43:00,
2013-10-23 19:53:00,42.0,31.0,-100.00,North,5,5.0,14.0,64,0.00,,,0.00,24.000000,,2013-10-23 23:53:00,
2013-10-23 20:02:00,42.0,31.0,-100.00,North,5,5.0,14.0,64,0.00,,,0.00,24.000000,,2013-10-24 00:02:00,
2013-10-23 20:43:00,41.0,31.0,-100.00,NNE,25,6.0,18.0,66,0.00,,,0.00,0.000000,,2013-10-24 00:43:00,
2013-10-23 20:52:00,41.0,31.0,-100.00,NNE,25,6.0,18.0,66,0.00,,,0.00,0.000000,,2013-10-24 00:52:00,
2013-10-23 21:01:00,41.0,31.0,-100.00,NNE,25,6.0,18.0,66,0.00,,,0.00,0.000000,,2013-10-24 01:01:00,
2013-10-23 21:42:00,40.0,31.0,-100.00,NNW,332,5.0,14.0,69,0.00,,,0.00,0.000000,,2013-10-24 01:42:00,
2013-10-23 21:52:00,40.0,31.0,-100.00,NNW,332,5.0,14.0,69,0.00,,,0.00,0.000000,,2013-10-24 01:52:00,
2013-10-23 22:03:00,40.0,31.0,-100.00,NNW,332,5.0,14.0,69,0.00,,,0.00,0.000000,,2013-10-24 02:03:00,
2013-10-23 22:52:00,38.0,29.0,-100.00,SSW,213,2.0,11.0,71,0.00,,,0.00,0.000000,,2013-10-24 02:52:00,
2013-10-23 23:02:00,38.0,29.0,-100.00,SSW,213,2.0,11.0,71,0.00,,,0.00,0.000000,,2013-10-24 03:02:00,
2013-10-23 23:44:00,35.0,30.0,-100.00,SSE,151,2.0,4.0,81,0.00,,,0.00,0.000000,,2013-10-24 03:44:00,
2013-10-23 23:55:00,35.0,30.0,-100.00,SSE,151,2.0,4.0,81,0.00,,,0.00,0.000000,,2013-10-24 03:55:00,